createdAt,value
2023-02-06T00:02:13.311Z,1.13
2023-02-06T00:04:40.250Z,1.13
2023-02-06T00:07:07.176Z,1.10
2023-02-06T00:09:33.987Z,1.11
2023-02-06T00:12:00.811Z,1.11
2023-02-06T00:14:27.895Z,1.10
2023-02-06T00:16:54.730Z,1.10
2023-02-06T00:19:21.554Z,1.06
2023-02-06T00:21:48.453Z,1.09
2023-02-06T00:24:15.286Z,1.08
2023-02-06T00:26:42.139Z,0.89
2023-02-06T00:29:09.068Z,1.03
2023-02-06T00:31:36.117Z,1.03
2023-02-06T00:34:07.771Z,1.02
2023-02-06T00:36:34.672Z,1.06
2023-02-06T00:39:01.862Z,1.11
2023-02-06T00:41:28.788Z,1.17
2023-02-06T00:43:55.657Z,1.18
2023-02-06T00:46:23.925Z,1.20
2023-02-06T00:48:50.806Z,1.23
2023-02-06T00:51:17.783Z,1.24
2023-02-06T00:53:44.625Z,1.25
2023-02-06T00:56:11.456Z,1.24
2023-02-06T00:58:38.447Z,1.22
2023-02-06T01:01:05.306Z,1.22
2023-02-06T01:03:32.218Z,0.97
2023-02-06T01:05:59.129Z,1.19
2023-02-06T01:08:26.000Z,1.00
2023-02-06T01:10:52.837Z,1.17
2023-02-06T01:13:19.705Z,1.24
2023-02-06T01:15:46.775Z,1.24
2023-02-06T01:18:13.639Z,1.23
2023-02-06T01:20:40.624Z,1.22
2023-02-06T01:23:07.493Z,1.21
2023-02-06T01:25:34.660Z,1.21
2023-02-06T01:28:01.765Z,1.21
2023-02-06T01:30:28.664Z,1.21
2023-02-06T01:32:56.516Z,1.19
2023-02-06T01:35:23.390Z,1.19
2023-02-06T01:37:50.234Z,1.18
2023-02-06T01:40:18.608Z,1.18
2023-02-06T01:42:45.562Z,1.17
2023-02-06T01:45:21.564Z,1.17
2023-02-06T01:47:52.252Z,1.11
2023-02-06T01:50:20.092Z,1.12
2023-02-06T01:52:47.306Z,1.14
2023-02-06T01:55:14.247Z,1.11
2023-02-06T01:57:41.953Z,1.09
2023-02-06T02:00:09.936Z,1.07
2023-02-06T02:02:43.036Z,1.04
2023-02-06T02:05:09.888Z,1.06
2023-02-06T02:07:37.440Z,0.84
2023-02-06T02:10:05.044Z,0.97
2023-02-06T02:12:31.955Z,0.78
2023-02-06T02:14:58.786Z,1.02
2023-02-06T02:17:31.785Z,1.00
2023-02-06T02:20:22.604Z,1.00
2023-02-06T02:23:16.938Z,1.00
2023-02-06T02:26:14.661Z,1.00
2023-02-06T02:28:53.355Z,0.99
2023-02-06T02:31:47.101Z,0.95
2023-02-06T02:34:51.262Z,0.97
2023-02-06T02:37:46.069Z,0.95
2023-02-06T02:40:28.720Z,0.95
2023-02-06T02:43:09.128Z,0.93
2023-02-06T02:46:09.333Z,0.92
2023-02-06T02:48:38.579Z,0.91
2023-02-06T02:51:05.591Z,0.90
2023-02-06T02:53:32.504Z,0.91
2023-02-06T02:56:00.189Z,0.83
2023-02-06T02:58:31.614Z,0.90
2023-02-06T03:01:01.568Z,0.69
2023-02-06T03:03:28.914Z,0.89
2023-02-06T03:06:12.355Z,0.94
2023-02-06T03:08:48.229Z,1.11
2023-02-06T03:11:16.731Z,1.41
2023-02-06T03:13:48.136Z,1.51
2023-02-06T03:16:19.058Z,2.08
2023-02-06T03:19:07.325Z,2.42
2023-02-06T03:21:35.508Z,2.82
2023-02-06T03:24:06.021Z,3.15
2023-02-06T03:26:32.855Z,3.49
2023-02-06T03:29:01.193Z,3.81
2023-02-06T03:31:50.184Z,4.15
2023-02-06T03:34:28.331Z,4.44
2023-02-06T03:36:55.290Z,4.75
2023-02-06T03:39:22.177Z,5.05
2023-02-06T03:41:49.078Z,5.35
2023-02-06T03:44:19.740Z,5.65
2023-02-06T03:46:46.589Z,5.89
2023-02-06T03:49:14.860Z,5.96
2023-02-06T03:51:45.717Z,6.41
2023-02-06T03:54:12.919Z,6.68
2023-02-06T03:56:55.711Z,6.89
2023-02-06T03:59:22.627Z,7.02
2023-02-06T04:01:51.899Z,7.19
2023-02-06T04:04:19.741Z,7.18
2023-02-06T04:06:46.793Z,7.56
2023-02-06T04:09:13.615Z,7.80
2023-02-06T04:11:40.609Z,8.02
2023-02-06T04:14:07.472Z,8.14
2023-02-06T04:16:34.416Z,8.06
2023-02-06T04:19:01.527Z,8.39
2023-02-06T04:21:28.370Z,8.55
2023-02-06T04:23:55.227Z,8.76
2023-02-06T04:26:22.111Z,8.96
2023-02-06T04:28:48.956Z,9.07
2023-02-06T04:31:15.904Z,9.16
2023-02-06T04:33:42.836Z,9.27
2023-02-06T04:36:09.737Z,9.43
2023-02-06T04:38:36.570Z,9.44
2023-02-06T04:41:04.544Z,9.52
2023-02-06T04:43:31.838Z,9.59
2023-02-06T04:45:59.039Z,9.90
2023-02-06T04:48:26.124Z,10.02
2023-02-06T04:50:53.080Z,10.17
2023-02-06T04:53:20.118Z,10.42
2023-02-06T04:55:47.043Z,10.75
2023-02-06T04:58:13.902Z,11.06
2023-02-06T05:00:40.931Z,11.34
2023-02-06T05:03:08.106Z,11.42
2023-02-06T05:05:35.445Z,11.83
2023-02-06T05:08:02.546Z,12.08
2023-02-06T05:10:29.561Z,12.29
2023-02-06T05:12:56.770Z,12.48
2023-02-06T05:15:23.821Z,12.67
2023-02-06T05:17:50.788Z,12.67
2023-02-06T05:20:17.890Z,13.02
2023-02-06T05:22:44.787Z,13.18
2023-02-06T05:25:11.732Z,13.35
2023-02-06T05:27:38.600Z,13.56
2023-02-06T05:30:05.738Z,13.81
2023-02-06T05:32:32.723Z,13.87
2023-02-06T05:34:59.573Z,14.19
2023-02-06T05:37:26.586Z,14.14
2023-02-06T05:39:53.599Z,14.47
2023-02-06T05:42:20.526Z,14.66
2023-02-06T05:44:47.733Z,14.84
2023-02-06T05:47:14.885Z,15.04
2023-02-06T05:49:44.064Z,15.08
2023-02-06T05:52:11.329Z,15.42
2023-02-06T05:54:38.291Z,15.63
2023-02-06T05:57:05.270Z,15.78
2023-02-06T05:59:32.272Z,15.97
2023-02-06T06:01:59.288Z,16.16
2023-02-06T06:04:26.509Z,16.35
2023-02-06T06:06:53.557Z,16.50
2023-02-06T06:09:20.642Z,16.69
2023-02-06T06:11:47.893Z,16.86
2023-02-06T06:14:14.939Z,16.87
2023-02-06T06:16:42.702Z,17.24
2023-02-06T06:19:09.714Z,17.23
2023-02-06T06:21:36.739Z,17.53
2023-02-06T06:24:03.934Z,17.68
2023-02-06T06:26:31.104Z,17.81
2023-02-06T06:28:58.040Z,17.90
2023-02-06T06:31:25.079Z,18.03
2023-02-06T06:33:52.928Z,18.11
2023-02-06T06:36:19.988Z,18.26
2023-02-06T06:38:46.983Z,18.40
2023-02-06T06:41:13.958Z,18.55
2023-02-06T06:43:42.278Z,18.68
2023-02-06T06:46:09.327Z,18.81
2023-02-06T06:48:38.263Z,18.94
2023-02-06T06:51:06.062Z,19.05
2023-02-06T06:53:33.202Z,18.99
2023-02-06T06:56:06.905Z,19.33
2023-02-06T06:58:34.160Z,19.45
2023-02-06T07:01:01.361Z,19.56
2023-02-06T07:03:28.460Z,19.66
2023-02-06T07:05:55.687Z,19.70
2023-02-06T07:08:22.929Z,19.74
2023-02-06T07:10:49.993Z,19.82
2023-02-06T07:13:16.986Z,19.78
2023-02-06T07:15:43.929Z,19.87
2023-02-06T07:18:11.936Z,20.11
2023-02-06T07:20:39.175Z,20.22
2023-02-06T07:23:06.357Z,20.34
2023-02-06T07:25:33.540Z,20.47
2023-02-06T07:28:00.830Z,20.60
2023-02-06T07:30:27.918Z,20.73
2023-02-06T07:32:54.962Z,20.86
2023-02-06T07:35:21.979Z,20.96
2023-02-06T07:37:49.013Z,21.05
2023-02-06T07:40:16.090Z,21.12
2023-02-06T07:42:43.037Z,21.22
2023-02-06T07:45:19.635Z,21.30
2023-02-06T07:47:46.668Z,21.38
2023-02-06T07:50:13.636Z,21.45
2023-02-06T07:52:40.510Z,21.52
2023-02-06T07:55:07.787Z,21.59
2023-02-06T07:57:34.653Z,21.63
2023-02-06T08:00:01.542Z,21.72
2023-02-06T08:02:39.448Z,21.78
2023-02-06T08:05:06.641Z,21.82
2023-02-06T08:07:33.594Z,21.86
2023-02-06T08:10:00.574Z,21.93
2023-02-06T08:12:29.714Z,22.00
2023-02-06T08:14:56.747Z,22.05
2023-02-06T08:17:23.799Z,22.07
2023-02-06T08:19:50.710Z,22.07
2023-02-06T08:22:17.682Z,22.16
2023-02-06T08:24:45.254Z,22.28
2023-02-06T08:27:12.179Z,22.38
2023-02-06T08:29:42.710Z,22.45
2023-02-06T08:32:10.362Z,22.33
2023-02-06T08:34:38.925Z,21.40
2023-02-06T08:37:05.803Z,21.18
2023-02-06T08:39:32.748Z,21.33
2023-02-06T08:41:59.673Z,21.38
2023-02-06T08:44:26.653Z,21.77
2023-02-06T08:47:08.734Z,21.86
2023-02-06T08:49:36.362Z,21.84
2023-02-06T08:52:03.362Z,21.81
2023-02-06T08:54:30.377Z,21.85
2023-02-06T08:56:58.517Z,21.91
2023-02-06T08:59:25.570Z,21.74
2023-02-06T09:01:52.512Z,21.86
2023-02-06T09:04:19.459Z,21.88
2023-02-06T09:06:49.057Z,21.90
2023-02-06T09:09:16.318Z,21.90
2023-02-06T09:11:43.338Z,21.85
2023-02-06T09:14:14.171Z,21.83
2023-02-06T09:16:41.114Z,21.71
2023-02-06T09:19:08.111Z,21.90
2023-02-06T09:21:35.355Z,21.86
2023-02-06T09:24:06.733Z,21.72
2023-02-06T09:26:44.799Z,21.89
2023-02-06T09:29:20.592Z,21.83
2023-02-06T09:31:47.879Z,21.80
2023-02-06T09:34:14.894Z,21.79
2023-02-06T09:36:41.834Z,21.84
2023-02-06T09:39:09.098Z,21.84
2023-02-06T09:41:47.813Z,21.84
2023-02-06T09:44:34.205Z,21.79
2023-02-06T09:47:09.324Z,21.54
2023-02-06T09:49:48.338Z,21.87
2023-02-06T09:52:22.994Z,21.78
2023-02-06T09:54:56.827Z,21.78
2023-02-06T09:57:23.674Z,21.83
2023-02-06T10:00:01.336Z,21.73
2023-02-06T10:03:03.825Z,21.82
2023-02-06T10:05:47.490Z,21.86
2023-02-06T10:08:21.816Z,21.93
2023-02-06T10:11:01.902Z,21.96
2023-02-06T10:13:49.745Z,21.90
2023-02-06T10:16:37.812Z,21.93
2023-02-06T10:19:14.865Z,21.97
2023-02-06T10:21:47.244Z,21.69
2023-02-06T10:24:20.168Z,21.52
2023-02-06T10:26:48.201Z,21.53
2023-02-06T10:29:25.094Z,21.62
2023-02-06T10:32:13.781Z,21.65
2023-02-06T10:35:05.975Z,21.57
2023-02-06T10:38:10.152Z,21.58
2023-02-06T10:40:42.869Z,21.64
2023-02-06T10:43:43.770Z,21.66
2023-02-06T10:46:33.075Z,21.65
2023-02-06T10:49:11.551Z,21.74
2023-02-06T10:51:42.624Z,21.88
2023-02-06T10:54:17.778Z,21.88
2023-02-06T10:56:45.874Z,21.92
2023-02-06T10:59:34.061Z,21.99
2023-02-06T11:02:21.362Z,22.18
2023-02-06T11:05:06.671Z,22.23
2023-02-06T11:07:45.432Z,22.23
2023-02-06T11:10:15.987Z,22.31
2023-02-06T11:12:47.098Z,22.46
2023-02-06T11:15:32.900Z,22.53
2023-02-06T11:18:05.634Z,22.40
2023-02-06T11:20:34.755Z,22.57
2023-02-06T11:23:19.210Z,22.67
2023-02-06T11:25:47.286Z,22.64
2023-02-06T11:28:17.417Z,22.57
2023-02-06T11:30:55.396Z,22.56
2023-02-06T11:33:45.619Z,22.54
2023-02-06T11:36:32.920Z,22.52
2023-02-06T11:39:20.878Z,22.43
2023-02-06T11:42:03.290Z,22.44
2023-02-06T11:44:36.890Z,22.36
2023-02-06T11:47:21.906Z,22.49
2023-02-06T11:49:48.894Z,22.45
2023-02-06T11:52:32.974Z,22.34
2023-02-06T11:55:02.574Z,22.56
2023-02-06T11:57:32.321Z,22.57
2023-02-06T12:00:01.794Z,22.35
2023-02-06T12:02:29.935Z,22.52
2023-02-06T12:05:11.595Z,22.56
2023-02-06T12:07:46.465Z,22.48
2023-02-06T12:10:17.864Z,22.39
2023-02-06T12:12:55.588Z,22.44
2023-02-06T12:15:46.835Z,22.47
2023-02-06T12:18:17.958Z,22.42
2023-02-06T12:21:20.674Z,22.34
2023-02-06T12:23:52.857Z,22.40
2023-02-06T12:26:21.006Z,22.39
2023-02-06T12:28:54.889Z,22.37
2023-02-06T12:31:25.924Z,22.29
2023-02-06T12:33:55.272Z,22.29
2023-02-06T12:36:30.299Z,22.34
2023-02-06T12:39:07.681Z,22.29
2023-02-06T12:41:34.563Z,22.21
2023-02-06T12:44:14.597Z,22.27
2023-02-06T12:46:41.675Z,22.32
2023-02-06T12:49:20.114Z,22.33
2023-02-06T12:51:58.209Z,22.24
2023-02-06T12:54:29.448Z,22.24
2023-02-06T12:57:02.906Z,22.26
2023-02-06T12:59:58.226Z,22.26
2023-02-06T13:02:45.941Z,22.13
2023-02-06T13:05:28.175Z,21.95
2023-02-06T13:07:56.833Z,22.13
2023-02-06T13:10:27.223Z,22.13
2023-02-06T13:13:01.234Z,22.05
2023-02-06T13:15:32.812Z,22.04
2023-02-06T13:18:00.142Z,22.03
2023-02-06T13:20:27.263Z,22.09
2023-02-06T13:23:12.577Z,22.01
2023-02-06T13:25:39.439Z,21.99
2023-02-06T13:28:25.713Z,22.03
2023-02-06T13:31:02.949Z,21.99
2023-02-06T13:33:43.936Z,21.90
2023-02-06T13:36:17.831Z,21.79
2023-02-06T13:38:44.820Z,21.52
2023-02-06T13:41:14.718Z,21.55
2023-02-06T13:43:42.425Z,21.42
2023-02-06T13:46:11.184Z,21.28
2023-02-06T13:49:29.183Z,21.18
2023-02-06T13:52:18.004Z,20.99
2023-02-06T13:55:00.228Z,20.86
2023-02-06T13:57:52.177Z,20.68
2023-02-06T14:00:28.975Z,20.53
2023-02-06T14:02:57.401Z,20.38
2023-02-06T14:05:34.516Z,20.23
2023-02-06T14:08:17.517Z,19.88
2023-02-06T14:11:19.436Z,19.62
2023-02-06T14:14:29.529Z,19.63
2023-02-06T14:17:11.048Z,19.50
2023-02-06T14:19:52.860Z,19.41
2023-02-06T14:22:41.621Z,19.18
2023-02-06T14:25:50.223Z,19.24
2023-02-06T14:28:25.578Z,19.15
2023-02-06T14:31:14.271Z,19.05
2023-02-06T14:34:18.244Z,18.94
2023-02-06T14:36:56.489Z,18.89
2023-02-06T14:39:49.023Z,18.89
2023-02-06T14:42:25.001Z,18.83
2023-02-06T14:45:00.324Z,18.71
2023-02-06T14:47:29.564Z,18.69
2023-02-06T14:49:57.154Z,18.58
2023-02-06T14:52:26.016Z,18.33
2023-02-06T14:54:53.062Z,18.38
2023-02-06T14:57:29.755Z,18.31
2023-02-06T15:00:01.785Z,18.23
2023-02-06T15:02:32.684Z,18.13
2023-02-06T15:04:59.977Z,17.83
2023-02-06T15:07:34.672Z,17.93
2023-02-06T15:10:11.766Z,17.81
2023-02-06T15:12:38.705Z,17.66
2023-02-06T15:15:20.392Z,17.40
2023-02-06T15:18:07.257Z,17.32
2023-02-06T15:20:54.169Z,17.36
2023-02-06T15:23:45.918Z,17.26
2023-02-06T15:26:35.522Z,17.14
2023-02-06T15:29:03.846Z,17.03
2023-02-06T15:31:31.022Z,16.78
2023-02-06T15:33:59.172Z,16.89
2023-02-06T15:36:34.600Z,16.83
2023-02-06T15:39:02.052Z,16.54
2023-02-06T15:41:30.820Z,16.64
2023-02-06T15:44:07.225Z,16.56
2023-02-06T15:46:34.330Z,16.45
2023-02-06T15:49:01.391Z,16.31
2023-02-06T15:51:29.753Z,16.07
2023-02-06T15:54:29.049Z,16.19
2023-02-06T15:57:07.968Z,16.07
2023-02-06T15:59:36.694Z,15.83
2023-02-06T16:02:03.996Z,15.88
2023-02-06T16:04:36.412Z,15.78
2023-02-06T16:07:12.625Z,15.72
2023-02-06T16:09:54.584Z,15.60
2023-02-06T16:12:21.479Z,15.51
2023-02-06T16:15:37.549Z,15.43
2023-02-06T16:18:25.556Z,15.13
2023-02-06T16:20:52.530Z,15.20
2023-02-06T16:23:20.426Z,15.14
2023-02-06T16:26:08.074Z,14.88
2023-02-06T16:28:51.636Z,14.95
2023-02-06T16:31:18.670Z,14.88
2023-02-06T16:33:47.622Z,14.83
2023-02-06T16:36:16.038Z,14.75
2023-02-06T16:38:46.338Z,14.69
2023-02-06T16:41:26.996Z,14.61
2023-02-06T16:43:54.668Z,14.53
2023-02-06T16:46:21.683Z,14.47
2023-02-06T16:48:48.758Z,14.39
2023-02-06T16:51:16.929Z,14.31
2023-02-06T16:53:44.143Z,14.23
2023-02-06T16:56:12.285Z,14.17
2023-02-06T16:58:39.229Z,14.07
2023-02-06T17:01:08.499Z,14.03
2023-02-06T17:03:37.836Z,13.94
2023-02-06T17:06:05.251Z,13.86
2023-02-06T17:08:34.077Z,13.79
2023-02-06T17:11:00.903Z,13.72
2023-02-06T17:13:27.828Z,13.67
2023-02-06T17:15:54.754Z,13.59
2023-02-06T17:18:22.753Z,13.53
2023-02-06T17:20:51.917Z,13.45
2023-02-06T17:23:19.304Z,13.16
2023-02-06T17:25:46.289Z,13.30
2023-02-06T17:28:15.308Z,13.23
2023-02-06T17:30:42.307Z,13.04
2023-02-06T17:33:09.243Z,12.84
2023-02-06T17:35:39.254Z,12.96
2023-02-06T17:38:06.826Z,12.83
2023-02-06T17:40:34.344Z,12.87
2023-02-06T17:43:03.878Z,12.80
2023-02-06T17:45:30.913Z,12.71
2023-02-06T17:47:57.781Z,12.66
2023-02-06T17:50:25.499Z,12.57
2023-02-06T17:52:56.168Z,12.49
2023-02-06T17:55:23.775Z,12.39
2023-02-06T17:57:50.735Z,12.35
2023-02-06T18:00:18.757Z,12.28
2023-02-06T18:02:45.832Z,12.21
2023-02-06T18:05:12.987Z,12.14
2023-02-06T18:07:39.936Z,12.09
2023-02-06T18:10:07.269Z,11.82
2023-02-06T18:12:34.301Z,11.95
2023-02-06T18:15:01.188Z,11.89
2023-02-06T18:17:28.013Z,11.79
2023-02-06T18:19:54.964Z,11.73
2023-02-06T18:22:22.082Z,11.67
2023-02-06T18:24:49.588Z,11.43
2023-02-06T18:27:16.899Z,11.45
2023-02-06T18:29:49.860Z,11.49
2023-02-06T18:32:18.271Z,11.43
2023-02-06T18:34:45.242Z,11.37
2023-02-06T18:37:12.184Z,10.91
2023-02-06T18:39:39.625Z,11.25
2023-02-06T18:42:25.337Z,11.19
2023-02-06T18:44:52.273Z,11.10
2023-02-06T18:47:20.233Z,11.03
2023-02-06T18:49:47.077Z,10.98
2023-02-06T18:52:14.005Z,10.91
2023-02-06T18:54:40.922Z,10.82
2023-02-06T18:57:07.770Z,10.60
2023-02-06T18:59:35.066Z,10.69
2023-02-06T19:02:02.650Z,10.63
2023-02-06T19:04:29.700Z,10.58
2023-02-06T19:06:56.615Z,10.50
2023-02-06T19:09:23.498Z,10.36
2023-02-06T19:11:50.349Z,10.36
2023-02-06T19:14:17.742Z,10.13
2023-02-06T19:16:47.340Z,10.20
2023-02-06T19:19:14.420Z,10.15
2023-02-06T19:21:41.340Z,10.09
2023-02-06T19:24:08.411Z,10.02
2023-02-06T19:26:35.304Z,9.96
2023-02-06T19:29:02.192Z,9.74
2023-02-06T19:31:29.086Z,9.83
2023-02-06T19:33:57.906Z,9.76
2023-02-06T19:36:25.156Z,9.67
2023-02-06T19:38:59.243Z,9.64
2023-02-06T19:41:27.478Z,9.55
2023-02-06T19:43:55.325Z,9.49
2023-02-06T19:46:24.182Z,9.20
2023-02-06T19:48:51.495Z,9.11
2023-02-06T19:51:23.663Z,9.28
2023-02-06T19:53:50.980Z,9.20
2023-02-06T19:56:21.876Z,9.11
2023-02-06T19:58:53.217Z,9.02
2023-02-06T20:01:20.161Z,8.89
2023-02-06T20:03:47.185Z,8.84
2023-02-06T20:06:14.293Z,8.77
2023-02-06T20:08:43.064Z,8.71
2023-02-06T20:11:14.575Z,8.65
2023-02-06T20:13:41.606Z,8.60
2023-02-06T20:16:18.254Z,8.52
2023-02-06T20:18:45.262Z,8.45
2023-02-06T20:21:26.771Z,8.42
2023-02-06T20:23:55.014Z,8.34
2023-02-06T20:26:22.591Z,8.32
2023-02-06T20:28:49.634Z,8.28
2023-02-06T20:31:16.719Z,8.23
2023-02-06T20:33:43.742Z,7.96
2023-02-06T20:36:13.732Z,8.13
2023-02-06T20:38:40.649Z,8.07
2023-02-06T20:41:08.249Z,8.00
2023-02-06T20:43:36.239Z,7.70
2023-02-06T20:46:06.172Z,7.70
2023-02-06T20:48:34.005Z,7.82
2023-02-06T20:51:01.854Z,7.75
2023-02-06T20:53:29.550Z,7.53
2023-02-06T20:55:56.393Z,7.64
2023-02-06T20:58:23.263Z,7.59
2023-02-06T21:00:50.279Z,7.54
2023-02-06T21:03:17.397Z,7.48
2023-02-06T21:05:44.418Z,7.18
2023-02-06T21:08:11.275Z,7.39
2023-02-06T21:10:38.377Z,7.31
2023-02-06T21:13:05.408Z,7.25
2023-02-06T21:15:33.352Z,7.18
2023-02-06T21:18:00.247Z,7.10
2023-02-06T21:20:27.162Z,7.08
2023-02-06T21:22:55.133Z,7.02
2023-02-06T21:25:22.037Z,6.97
2023-02-06T21:27:49.002Z,6.91
2023-02-06T21:30:15.964Z,6.62
2023-02-06T21:32:42.820Z,6.80
2023-02-06T21:35:10.440Z,6.75
2023-02-06T21:37:37.765Z,6.67
2023-02-06T21:40:05.503Z,6.64
2023-02-06T21:42:32.641Z,6.59
2023-02-06T21:44:59.606Z,6.49
2023-02-06T21:47:26.467Z,6.49
2023-02-06T21:49:53.345Z,6.43
2023-02-06T21:52:20.243Z,6.33
2023-02-06T21:54:47.089Z,6.33
2023-02-06T21:57:14.009Z,6.27
2023-02-06T21:59:42.019Z,6.21
2023-02-06T22:02:10.668Z,6.14
2023-02-06T22:04:38.523Z,6.11
2023-02-06T22:07:05.441Z,6.05
2023-02-06T22:09:32.330Z,6.00
2023-02-06T22:11:59.379Z,5.94
2023-02-06T22:14:26.282Z,5.86
2023-02-06T22:16:53.479Z,5.85
2023-02-06T22:19:20.472Z,5.80
2023-02-06T22:21:47.400Z,5.71
2023-02-06T22:24:14.466Z,5.70
2023-02-06T22:26:41.621Z,5.67
2023-02-06T22:29:11.167Z,5.61
2023-02-06T22:31:38.632Z,5.33
2023-02-06T22:34:06.009Z,5.26
2023-02-06T22:36:33.186Z,5.30
2023-02-06T22:39:06.621Z,5.42
2023-02-06T22:41:34.273Z,5.37
2023-02-06T22:44:01.235Z,5.25
2023-02-06T22:46:30.070Z,5.28
2023-02-06T22:48:57.136Z,5.26
2023-02-06T22:51:24.039Z,5.23
2023-02-06T22:53:51.086Z,5.21
2023-02-06T22:56:32.069Z,5.19
2023-02-06T22:59:19.329Z,5.14
2023-02-06T23:01:47.226Z,5.09
2023-02-06T23:04:23.951Z,5.05
2023-02-06T23:06:50.884Z,4.87
2023-02-06T23:09:19.793Z,4.96
2023-02-06T23:11:46.866Z,4.92
2023-02-06T23:14:14.291Z,4.87
2023-02-06T23:16:41.244Z,4.82
2023-02-06T23:19:08.475Z,4.75
2023-02-06T23:21:37.088Z,4.72
2023-02-06T23:24:05.287Z,4.69
2023-02-06T23:26:32.560Z,4.64
2023-02-06T23:29:00.371Z,4.38
2023-02-06T23:31:27.779Z,4.56
2023-02-06T23:33:54.928Z,4.34
2023-02-06T23:36:23.716Z,4.48
2023-02-06T23:38:50.812Z,4.43
2023-02-06T23:41:19.696Z,4.40
2023-02-06T23:44:02.668Z,4.31
2023-02-06T23:46:30.879Z,4.07
2023-02-06T23:48:57.843Z,4.21
2023-02-06T23:51:25.003Z,3.99
2023-02-06T23:53:51.991Z,4.15
2023-02-06T23:56:27.324Z,4.14
2023-02-06T23:58:54.369Z,4.07
